Flight Track Log - Related Links

Times and Time Zones

All times are in EDT time to prevent confusion due to time zone crossing. See the ASH3731 flight status page for this flight to view local times or setup timezone preferences in your user account.

Time Position Orientation Groundspeed Altitude Reporting Facility
EDT Latitude Longitude Course Direction KTS MPH feet Rate Location/Type
Fri 06:53:15 AM 41.7366 -71.4624 224° Southwest  Level FlightAware
Fri 06:54:40 AM 41.7006 -71.5086 317° Northwest 180 207 3,300  Level Boston Center
Fri 06:55:51 AM 41.7467 -71.5664 334° Northwest 227 261 5,400 2,198 Climbing Boston Center
Fri 06:56:51 AM 41.8139 -71.6100 311° West 243 280 8,100 2,550 Climbing Boston Center
Fri 06:57:51 AM 41.8622 -71.6847 309° West 253 291 10,500 2,200 Climbing Boston Center
Fri 06:58:51 AM 41.9108 -71.7650 305° West 280 322 12,500 1,800 Climbing Boston Center
Fri 06:59:51 AM 41.9614 -71.8622 291° West 304 350 14,100 1,650 Climbing Boston Center
Fri 07:00:51 AM 41.9931 -71.9736 294° West 326 375 15,800 1,750 Climbing Boston Center
Fri 07:01:51 AM 42.0311 -72.0908 293° West 331 381 17,600 1,600 Climbing Boston Center
Fri 07:02:51 AM 42.0667 -72.2053 294° West 336 387 19,000 1,450 Climbing Boston Center
Fri 07:03:51 AM 42.1064 -72.3281 292° West 336 387 20,500 1,500 Climbing Boston Center
Fri 07:04:51 AM 42.1442 -72.4514 291° West 348 400 22,000 1,350 Climbing Boston Center
Fri 07:05:51 AM 42.1814 -72.5803 292° West 359 413 23,200 1,300 Climbing Boston Center
Fri 07:06:51 AM 42.2208 -72.7119 290° West 370 426 24,600 1,250 Climbing Boston Center
Fri 07:07:51 AM 42.2558 -72.8439 292° West 375 432 25,700 1,000 Climbing Boston Center
Fri 07:08:51 AM 42.2928 -72.9678 290° West 386 444 26,600 1,050 Climbing Boston Center
Fri 07:09:51 AM 42.3317 -73.1114 294° West 398 458 27,800 950 Climbing Boston Center
Fri 07:10:51 AM 42.3747 -73.2439 290° West 393 452 28,500 694 Climbing Boston Center
Fri 07:11:52 AM 42.4153 -73.3933 290° West 402 463 29,200 750 Climbing Boston Center
Fri 07:12:51 AM 42.4556 -73.5403 292° West 416 479 30,000 807 Climbing Boston Center
Fri 07:13:51 AM 42.4978 -73.6847 291° West 416 479 30,800 900 Climbing Boston Center
Fri 07:14:51 AM 42.5397 -73.8350 289° West 416 479 31,800 1,000 Climbing Boston Center
Fri 07:15:51 AM 42.5775 -73.9825 291° West 416 479 32,800 900 Climbing Boston Center
Fri 07:16:51 AM 42.6231 -74.1417 290° West 406 467 33,600 750 Climbing Boston Center
Fri 07:17:51 AM 42.6625 -74.2894 290° West 406 467 34,300 800 Climbing Boston Center
Fri 07:18:51 AM 42.7017 -74.4347 290° West 412 474 35,200 850 Climbing Boston Center
Fri 07:19:51 AM 42.7408 -74.5803 290° West 412 474 36,000 400 Climbing Boston Center
Fri 07:20:51 AM 42.7797 -74.7286 290° West 412 474 36,000  Level Boston Center
Fri 07:21:51 AM 42.8203 -74.8803 289° West 412 474 36,000  Level Boston Center
Fri 07:22:51 AM 42.8567 -75.0261 289° West 417 480 36,000  Level Boston Center
Fri 07:23:51 AM 42.8947 -75.1781 290° West 417 480 36,000  Level Boston Center
Fri 07:24:51 AM 42.9272 -75.2986 290° West 417 480 36,000  Level Boston Center
Fri 07:25:51 AM 42.9689 -75.4594 290° West 412 474 36,000  Level Boston Center
Fri 07:26:51 AM 43.0086 -75.6119 291° West 412 474 36,000  Level Boston Center
Fri 07:27:51 AM 43.0483 -75.7561 288° West 412 474 36,000  Level Boston Center
Fri 07:28:51 AM 43.0853 -75.9089 286° West 412 474 36,000  Level Boston Center
Fri 07:32:23 AM 43.2014 -76.4531 281° West 426 490 36,000  Level Cleveland Center
Fri 07:33:23 AM 43.2236 -76.6083 283° West 411 473 36,000  Level Cleveland Center
Fri 07:34:23 AM 43.2497 -76.7636 282° West 416 479 36,000  Level Cleveland Center
Fri 07:35:23 AM 43.2733 -76.9161 282° West 416 479 36,000  Level Cleveland Center
Fri 07:36:23 AM 43.2969 -77.0689 282° West 416 479 36,000  Level Cleveland Center
Fri 07:37:23 AM 43.3175 -77.2047 283° West 416 479 36,000  Level Cleveland Center
Fri 07:38:23 AM 43.3428 -77.3603 281° West 411 473 36,000  Level Cleveland Center
Fri 07:39:23 AM 43.3636 -77.5106 282° West 411 473 36,000  Level Cleveland Center
Fri 07:40:23 AM 43.3861 -77.6553 281° West 405 466 36,000  Level Cleveland Center
Fri 07:41:23 AM 43.4086 -77.8086 282° West 405 466 36,000  Level Cleveland Center
Fri 07:42:23 AM 43.4308 -77.9589 281° West 410 472 36,000  Level Cleveland Center
Fri 07:43:23 AM 43.4508 -78.1069 281° West 410 472 36,000  Level Cleveland Center
Fri 07:44:23 AM 43.4725 -78.2575 282° West 410 472 36,000  Level Cleveland Center
Fri 07:45:23 AM 43.4942 -78.4028 280° West 405 466 36,000  Level Cleveland Center
Fri 07:46:23 AM 43.5136 -78.5539 282° West 405 466 36,000  Level Cleveland Center
Fri 07:47:23 AM 43.5372 -78.7133 277° West 405 466 36,000  Level Cleveland Center
Fri 07:48:39 AM 43.5500 -78.8667 278° West 390 449 36,000 485 Level Toronto Center
Fri 07:49:39 AM 43.5667 -79.0333 289° West 390 449 37,100 950 Climbing Toronto Center
Fri 07:50:39 AM 43.6000 -79.1667 261° West 370 426 37,900 450 Climbing Toronto Center
Fri 07:51:39 AM 43.5833 -79.3167 260° West 370 426 38,000 50 Climbing Toronto Center
Fri 07:52:39 AM 43.5667 -79.4500 260° West 370 426 38,000  Level Toronto Center
Fri 07:53:39 AM 43.5500 -79.5833 262° West 380 437 38,000  Level Toronto Center
Fri 07:54:39 AM 43.5333 -79.7500 260° West 390 449 38,000  Level Toronto Center
Fri 07:55:39 AM 43.5167 -79.8833 260° West 380 437 38,000  Level Toronto Center
Fri 07:56:39 AM 43.5000 -80.0167 261° West 380 437 38,000  Level Toronto Center
Fri 07:57:39 AM 43.4833 -80.1667 260° West 380 437 38,000  Level Toronto Center
Fri 07:58:39 AM 43.4667 -80.3000 262° West 380 437 38,000  Level Toronto Center
Fri 07:59:39 AM 43.4500 -80.4667 260° West 380 437 38,000  Level Toronto Center
Fri 08:00:39 AM 43.4333 -80.6000 260° West 380 437 38,000  Level Toronto Center
Fri 08:01:39 AM 43.4167 -80.7333 255° West 380 437 38,000  Level Toronto Center
Fri 08:02:39 AM 43.3833 -80.9000 251° West 380 437 38,000  Level Toronto Center
Fri 08:03:39 AM 43.3500 -81.0333 262° West 380 437 38,000  Level Toronto Center
Fri 08:04:39 AM 43.3333 -81.2000 260° West 380 437 38,000  Level Toronto Center
Fri 08:05:39 AM 43.3167 -81.3333 260° West 380 437 38,000  Level Toronto Center
Fri 08:06:39 AM 43.3000 -81.4667 260° West 380 437 38,000  Level Toronto Center
Fri 08:07:39 AM 43.2833 -81.6000 262° West 380 437 38,000  Level Toronto Center
Fri 08:08:39 AM 43.2667 -81.7667 260° West 380 437 38,000  Level Toronto Center
Fri 08:09:39 AM 43.2500 -81.9000 251° West 380 437 38,000  Level Toronto Center
Fri 08:10:39 AM 43.2167 -82.0333 260° West 380 437 38,000  Level Toronto Center
Fri 08:11:39 AM 43.2000 -82.1667 260° West 380 437 38,000  Level Toronto Center
Fri 08:12:39 AM 43.1833 -82.3000 262° West 380 437 38,000 -50 Level Toronto Center
Fri 08:13:39 AM 43.1667 -82.4667 260° West 370 426 37,900 -450 Descending Toronto Center
Fri 08:14:39 AM 43.1500 -82.6000 251° West 370 426 37,100 -800 Descending Toronto Center
Fri 08:15:39 AM 43.1167 -82.7333 251° West 380 437 36,300 -750 Descending Toronto Center
Fri 08:16:39 AM 43.0833 -82.8667 262° West 380 437 35,600 -950 Descending Toronto Center
Fri 08:17:39 AM 43.0667 -83.0333 260° West 380 437 34,400 -1,250 Descending Toronto Center
Fri 08:18:39 AM 43.0500 -83.1667 251° West 390 449 33,100 -1,200 Descending Toronto Center
Fri 08:19:39 AM 43.0167 -83.3000 262° West 400 460 32,000 -550 Descending Toronto Center
Fri 08:20:39 AM 43.0000 -83.4667 261° West 400 460 32,000  Level Toronto Center
Fri 08:21:39 AM 42.9833 -83.6167 251° West 400 460 32,000  Level Toronto Center
Fri 08:22:39 AM 42.9500 -83.7500 262° West 390 449 32,000  Level Toronto Center
Fri 08:23:39 AM 42.9333 -83.9167 270° West 390 449 32,000  Level Toronto Center
Fri 08:24:39 AM 42.9333 -84.0500 255° West 390 449 32,000  Level Toronto Center
Fri 08:25:39 AM 42.9000 -84.2167 270° West 390 449 32,000  Level Toronto Center
Fri 08:26:39 AM 42.9000 -84.3500 261° West 390 449 32,000  Level Toronto Center
Fri 08:27:39 AM 42.8833 -84.5000 260° West 390 449 32,000  Level Toronto Center
Fri 08:28:39 AM 42.8667 -84.6333 262° West 390 449 32,000  Level Toronto Center
Fri 08:29:39 AM 42.8500 -84.8000 260° West 390 449 32,000  Level Toronto Center
Fri 08:30:39 AM 42.8333 -84.9333 267° West 400 460 32,000 -81 Level Toronto Center
Fri 08:32:08 AM 42.8261 -85.1483 261° West 397 457 31,800 -483 Descending Chicago Center
Fri 08:33:08 AM 42.8089 -85.3025 261° West 403 464 30,800 -1,050 Descending Chicago Center
Fri 08:34:08 AM 42.7878 -85.4764 257° West 421 484 29,700 -1,050 Descending Chicago Center
Fri 08:35:08 AM 42.7617 -85.6336 256° West 426 490 28,700 1,150 Descending Chicago Center
Fri 08:36:08 AM 42.7331 -85.7908 257° West 431 496 32,000 -1,750 Climbing Chicago Center
Fri 08:37:08 AM 42.7083 -85.9336 256° West 421 484 25,200 -4,250 Descending Chicago Center
Fri 08:38:08 AM 42.6850 -86.0592 256° West 405 466 23,500 -1,900 Descending Chicago Center
Fri 08:39:08 AM 42.6594 -86.1933 257° West 383 441 21,400 -1,750 Descending Chicago Center
Fri 08:40:08 AM 42.6358 -86.3269 257° West 378 435 20,000 -700 Descending Chicago Center
Fri 08:41:08 AM 42.6142 -86.4578 254° West 368 423 20,000  Level Chicago Center
Fri 08:42:08 AM 42.5864 -86.5917 258° West 368 423 20,000 -50 Level Chicago Center
Fri 08:43:08 AM 42.5644 -86.7281 250° West 362 417 19,900 -650 Descending Chicago Center
Fri 08:44:08 AM 42.5278 -86.8647 248° West 369 425 18,700 -1,950 Descending Chicago Center
Fri 08:45:08 AM 42.4811 -87.0217 250° West 396 456 16,000 -2,750 Descending Chicago Center
Fri 08:46:08 AM 42.4442 -87.1553 251° West 402 463 13,200 -2,800 Descending Chicago Center
Fri 08:47:08 AM 42.4111 -87.2856 250° West 383 441 10,400 -1,600 Descending Chicago Center
Fri 08:48:08 AM 42.3778 -87.4075 247° West 371 427 10,000 -200 Descending Chicago Center
Fri 08:49:08 AM 42.3403 -87.5267 224° Southwest 359 413 10,000  Level Chicago Center
Fri 08:50:08 AM 42.2686 -87.6186 216° Southwest 343 395 10,000  Level Chicago Center
Fri 08:51:08 AM 42.1906 -87.6964 215° Southwest 356 410 10,000  Level Chicago Center
Fri 08:52:03 AM 42.1167 -87.7667 246° West 322 371 10,000 -595 Level Chicago TRACON
Fri 08:53:09 AM 42.0833 -87.8667 257° West 283 326 8,800 -1,300 Descending Chicago TRACON
Fri 08:54:03 AM 42.0667 -87.9667 270° West 280 322 7,400 -1,105 Descending Chicago TRACON
Fri 08:55:03 AM 42.0667 -88.0500 255° West 232 267 6,700 -1,333 Descending Chicago TRACON
Fri 08:56:09 AM 42.0500 -88.1333 180° South 233 268 4,600 -1,455 Descending Chicago TRACON
Fri 08:57:15 AM 42.0000 -88.1333 124° Southeast 220 253 3,500 -952 Descending Chicago TRACON
Fri 08:58:15 AM 41.9667 -88.0667 90° East 210 242 2,600 -842 Descending Chicago TRACON
Fri 08:59:09 AM 41.9667 -88.0000 90° East 154 177 1,900 -778 Descending Chicago TRACON

Login

Don't have an account? Register now (free) for customized features, flight alerts, and more!